Time;durP1;ratioP1;P1;durP2;ratioP2;P2;SDS_P1;SDS_P2;PMS_P1;PMS_P2;Temp;Humidity;BMP_temperature;BMP_pressure;BME280_temperature;BME280_humidity;BME280_pressure;Samples;Min_cycle;Max_cycle;Signal;HPM_P1;HPM_P2
2022/06/12 14:33:56;;;;;;;0.88;0.80;;;;;;;28.23;100.00;100228.81;2615996;54;20220;-64
2022/06/12 14:36:34;;;;;;;0.52;0.43;;;;;;;28.55;100.00;100232.22;2825250;36;20217;-64
2022/06/12 14:39:21;;;;;;;0.90;0.57;;;;;;;29.25;100.00;100222.78;2617027;47;20145;-64
2022/06/12 14:41:54;;;;;;;0.98;0.88;;;;;;;29.47;100.00;100217.81;2617130;54;20157;-66
2022/06/12 14:44:26;;;;;;;1.35;1.10;;;;;;;28.79;100.00;100218.03;2617362;47;20150;-64
2022/06/12 14:46:57;;;;;;;1.80;1.35;;;;;;;28.73;100.00;100212.72;2617477;39;20544;-64
2022/06/12 14:49:30;;;;;;;1.40;1.02;;;;;;;28.70;100.00;100205.19;2617344;54;20146;-64
2022/06/12 14:52:00;;;;;;;1.20;1.10;;;;;;;28.56;100.00;100203.66;2617354;54;20133;-64
2022/06/12 14:54:30;;;;;;;0.77;0.77;;;;;;;28.49;100.00;100202.88;2617242;54;20133;-65
2022/06/12 14:57:01;;;;;;;0.28;0.20;;;;;;;28.57;100.00;100197.25;2617361;54;20142;-64
2022/06/12 14:59:32;;;;;;;0.38;0.38;;;;;;;28.93;100.00;100201.84;2617197;51;20134;-64
2022/06/12 15:02:02;;;;;;;0.40;0.40;;;;;;;28.75;100.00;100198.13;2617327;54;20141;-64
2022/06/12 15:04:35;;;;;;;6.78;1.33;;;;;;;28.21;100.00;100206.03;2617263;54;20133;-64
2022/06/12 15:07:06;;;;;;;5.53;0.98;;;;;;;27.52;100.00;100204.28;2617079;54;20142;-64
2022/06/12 15:09:36;;;;;;;0.70;0.70;;;;;;;27.41;100.00;100213.72;2617243;31;20632;-64
2022/06/12 15:12:07;;;;;;;1.40;1.10;;;;;;;27.05;100.00;100204.69;2616720;54;20145;-64
2022/06/12 15:14:38;;;;;;;0.95;0.95;;;;;;;27.00;100.00;100222.09;2617341;54;20142;-63
2022/06/12 15:17:09;;;;;;;1.08;1.02;;;;;;;26.86;100.00;100225.03;2617602;54;20164;-64
2022/06/12 15:19:42;;;;;;;2.70;2.50;;;;;;;26.66;100.00;100224.22;2616825;54;20158;-64
2022/06/12 15:22:17;;;;;;;0.65;0.57;;;;;;;26.53;100.00;100228.53;2617185;54;20134;-63
2022/06/12 15:24:48;;;;;;;1.20;0.93;;;;;;;26.57;100.00;100212.16;2617529;54;20141;-64
2022/06/12 15:30:01;;;;;;;0.50;0.50;;;;;;;26.59;100.00;100204.81;2618099;54;20645;-63
2022/06/12 15:32:35;;;;;;;0.08;0.08;;;;;;;26.73;100.00;100201.88;2619045;54;20180;-64
2022/06/12 15:35:17;;;;;;;0.70;0.35;;;;;;;27.46;100.00;100213.09;2620164;54;20723;-64
2022/06/12 15:37:51;;;;;;;0.45;0.45;;;;;;;28.63;100.00;100199.06;2619468;54;20168;-65
2022/06/12 15:40:21;;;;;;;0.52;0.45;;;;;;;29.43;100.00;100211.28;2618451;54;20153;-64
2022/06/12 15:42:52;;;;;;;1.00;0.43;;;;;;;29.83;100.00;100214.19;2618736;54;20141;-64
2022/06/12 15:45:24;;;;;;;0.40;0.38;;;;;;;30.15;96.34;100215.56;2619003;39;20528;-64
2022/06/12 15:47:54;;;;;;;0.40;0.40;;;;;;;30.71;94.79;100210.66;2618576;54;20137;-64
2022/06/12 15:50:27;;;;;;;1.15;1.15;;;;;;;30.98;83.19;100214.44;2618582;54;20693;-63
2022/06/12 15:52:58;;;;;;;1.42;1.20;;;;;;;30.21;86.77;100221.84;2617630;54;20160;-64
2022/06/12 15:55:29;;;;;;;0.90;0.90;;;;;;;30.19;94.46;100218.56;2617752;54;20669;-63
2022/06/12 15:58:00;;;;;;;0.85;0.85;;;;;;;30.21;88.67;100229.88;2618073;54;20153;-64
2022/06/12 16:00:30;;;;;;;1.05;0.85;;;;;;;29.72;90.63;100228.38;2618903;54;20145;-64
2022/06/12 16:03:01;;;;;;;1.17;1.13;;;;;;;29.45;90.31;100230.56;2620955;47;20153;-67
2022/06/12 16:05:33;;;;;;;1.13;1.08;;;;;;;29.07;96.42;100235.38;2618430;54;20138;-63
2022/06/12 16:08:04;;;;;;;1.38;1.27;;;;;;;29.14;92.79;100244.13;2618278;54;20149;-64
2022/06/12 16:10:34;;;;;;;1.60;1.33;;;;;;;29.22;92.71;100241.13;2617320;54;20681;-64
2022/06/12 16:13:04;;;;;;;0.70;0.43;;;;;;;28.84;90.89;100225.38;2618048;47;20249;-64
2022/06/12 16:15:35;;;;;;;6.32;0.88;;;;;;;28.31;90.15;100233.88;2618509;39;20563;-64
2022/06/12 16:18:05;;;;;;;1.58;1.48;;;;;;;28.03;90.38;100238.78;2618714;39;20562;-64
2022/06/12 16:20:38;;;;;;;1.33;1.10;;;;;;;27.69;94.36;100231.22;2618411;49;20144;-64
2022/06/12 16:23:09;;;;;;;2.22;1.75;;;;;;;27.50;94.16;100242.81;2619236;39;20532;-64
2022/06/12 16:25:40;;;;;;;7.25;1.75;;;;;;;27.37;88.72;100265.81;2618797;54;20145;-64
2022/06/12 16:28:11;;;;;;;0.77;0.77;;;;;;;27.30;90.70;100226.91;2618462;54;20171;-64
2022/06/12 16:30:41;;;;;;;0.70;0.70;;;;;;;27.39;81.42;100228.31;2618076;54;20149;-63
2022/06/12 16:33:12;;;;;;;1.77;0.95;;;;;;;27.36;79.87;100272.16;2618820;39;20684;-63
2022/06/12 16:35:46;;;;;;;1.02;1.02;;;;;;;27.16;80.45;100265.31;2618540;46;20181;-64
2022/06/12 16:38:17;;;;;;;1.27;1.10;;;;;;;26.87;84.12;100271.94;2618659;39;20557;-64
2022/06/12 16:40:48;;;;;;;2.15;1.00;;;;;;;26.74;87.39;100250.63;2618309;54;20157;-63
2022/06/12 16:43:18;;;;;;;7.25;1.27;;;;;;;26.56;95.25;100256.56;2617752;47;20141;-64
2022/06/12 16:45:49;;;;;;;14.15;3.13;;;;;;;26.43;97.54;100280.56;2617734;54;20146;-63
2022/06/12 16:48:19;;;;;;;1.70;1.25;;;;;;;26.03;100.00;100274.38;2616471;54;20697;-63
2022/06/12 16:50:52;;;;;;;2.00;1.33;;;;;;;25.89;100.00;100268.19;2616930;54;20164;-63
2022/06/12 16:53:24;;;;;;;2.03;1.02;;;;;;;25.84;100.00;100264.53;2616928;54;20153;-63
2022/06/12 16:55:54;;;;;;;1.55;1.42;;;;;;;25.73;100.00;100287.19;2617166;54;20187;-63
2022/06/12 16:58:25;;;;;;;3.22;2.25;;;;;;;25.84;100.00;100281.28;2616973;54;20631;-63
2022/06/12 17:00:55;;;;;;;1.80;1.30;;;;;;;25.71;100.00;100280.44;2616845;54;20503;-63
2022/06/12 17:03:25;;;;;;;1.95;1.75;;;;;;;25.54;100.00;100306.53;2616555;54;20160;-63
2022/06/12 17:05:58;;;;;;;4.13;1.92;;;;;;;25.32;100.00;100276.56;2617012;54;20149;-63
2022/06/12 17:08:29;;;;;;;3.80;3.10;;;;;;;25.14;100.00;100285.09;2617646;54;20138;-63
2022/06/12 17:10:59;;;;;;;2.35;1.23;;;;;;;25.08;100.00;100299.13;2618295;54;20149;-62
2022/06/12 17:13:29;;;;;;;4.47;2.38;;;;;;;25.03;100.00;100298.94;2616284;54;20146;-63
2022/06/12 17:15:59;;;;;;;2.78;2.58;;;;;;;24.86;100.00;100302.06;2616986;54;20137;-64
2022/06/12 17:21:16;;;;;;;3.35;2.80;;;;;;;24.66;100.00;100302.72;2617012;54;20164;-62
2022/06/12 17:23:46;;;;;;;4.43;3.35;;;;;;;24.61;100.00;100297.16;2617008;50;20587;-63
2022/06/12 17:26:16;;;;;;;3.85;3.55;;;;;;;24.52;100.00;100319.53;2617077;47;20141;-63
2022/06/12 17:28:47;;;;;;;2.78;2.22;;;;;;;24.46;100.00;100324.78;2616536;54;20680;-63
2022/06/12 17:31:17;;;;;;;5.90;3.60;;;;;;;24.38;100.00;100341.66;2616830;54;20153;-63
2022/06/12 17:33:47;;;;;;;5.95;3.63;;;;;;;24.26;100.00;100343.19;2617553;39;20561;-64
2022/06/12 17:36:21;;;;;;;12.05;3.60;;;;;;;24.21;100.00;100346.41;2616597;54;20146;-63
2022/06/12 17:38:51;;;;;;;3.85;2.67;;;;;;;24.16;100.00;100340.84;2617698;39;20647;-62
2022/06/12 17:41:21;;;;;;;5.07;3.40;;;;;;;24.14;100.00;100344.66;2617735;54;20134;-64
2022/06/12 17:43:52;;;;;;;4.30;2.35;;;;;;;24.12;100.00;100344.00;2617713;54;20145;-63
2022/06/12 17:46:22;;;;;;;1.65;1.55;;;;;;;24.16;100.00;100348.78;2617508;54;20138;-62
2022/06/12 17:48:53;;;;;;;2.20;1.95;;;;;;;24.12;100.00;100347.50;2617249;54;20153;-63
2022/06/12 17:51:26;;;;;;;1.10;1.08;;;;;;;24.12;100.00;100373.16;2617444;47;20149;-62
2022/06/12 17:53:56;;;;;;;7.32;1.65;;;;;;;24.12;100.00;100328.94;2617378;54;20668;-63
2022/06/12 17:56:26;;;;;;;3.33;1.92;;;;;;;24.14;100.00;100326.09;2619114;54;20150;-62
2022/06/12 17:58:57;;;;;;;2.15;1.95;;;;;;;24.02;100.00;100336.38;2617417;54;20141;-63
2022/06/12 18:01:27;;;;;;;3.63;2.45;;;;;;;23.96;100.00;100344.25;2617054;54;20137;-63
2022/06/12 18:03:58;;;;;;;3.38;2.78;;;;;;;23.89;100.00;100343.34;2617264;51;20153;-63
2022/06/12 18:06:32;;;;;;;3.17;2.58;;;;;;;23.80;100.00;100332.03;2617109;47;20665;-63
2022/06/12 18:09:02;;;;;;;7.03;2.83;;;;;;;23.70;100.00;100315.63;2617288;54;20145;-63
2022/06/12 18:11:33;;;;;;;3.30;2.70;;;;;;;23.69;100.00;100341.31;2617766;54;20146;-63
2022/06/12 18:14:04;;;;;;;4.32;2.80;;;;;;;23.68;100.00;100337.00;2617012;47;20165;-63
2022/06/12 18:19:20;;;;;;;7.28;2.50;;;;;;;23.69;100.00;100373.09;2617213;54;20153;-63
2022/06/12 18:21:54;;;;;;;1.45;1.35;;;;;;;23.66;100.00;100357.59;2616683;54;20142;-62
2022/06/12 18:24:28;;;;;;;2.20;1.48;;;;;;;23.64;100.00;100367.53;2616506;54;20156;-62
2022/06/12 18:26:58;;;;;;;4.55;2.92;;;;;;;23.61;100.00;100359.94;2616924;54;20171;-62
2022/06/12 18:29:28;;;;;;;6.35;2.10;;;;;;;23.59;100.00;100361.16;2617160;54;20145;-63
2022/06/12 18:31:58;;;;;;;3.63;1.73;;;;;;;23.54;100.00;100348.47;2616944;54;20177;-62
2022/06/12 18:34:29;;;;;;;5.57;2.42;;;;;;;23.50;100.00;100378.97;2617437;39;20552;-62
2022/06/12 18:37:02;;;;;;;2.90;2.55;;;;;;;23.51;100.00;100396.47;2617432;54;20145;-62
2022/06/12 18:39:32;;;;;;;2.97;2.72;;;;;;;23.54;100.00;100405.91;2617509;39;20524;-63
2022/06/12 18:42:02;;;;;;;5.10;2.20;;;;;;;23.59;100.00;100406.97;2616935;54;20154;-63
2022/06/12 18:44:32;;;;;;;2.50;1.55;;;;;;;23.64;100.00;100401.97;2617217;54;20149;-63
2022/06/12 18:47:02;;;;;;;3.38;1.90;;;;;;;23.61;100.00;100407.63;2617365;39;20929;-63
2022/06/12 18:49:33;;;;;;;2.08;1.88;;;;;;;23.61;100.00;100423.53;2616852;54;20153;-63
2022/06/12 18:52:06;;;;;;;3.17;1.70;;;;;;;23.59;100.00;100414.94;2616853;46;20175;-63
2022/06/12 18:54:36;;;;;;;4.63;2.40;;;;;;;23.58;100.00;100407.19;2617055;54;20161;-63
2022/06/12 18:57:08;;;;;;;3.95;1.83;;;;;;;23.67;100.00;100425.44;2616692;54;20412;-62
2022/06/12 18:59:38;;;;;;;1.77;1.27;;;;;;;23.73;100.00;100413.28;2617086;54;20152;-62
2022/06/12 19:02:08;;;;;;;3.53;1.85;;;;;;;23.72;100.00;100411.63;2616741;54;20146;-62
2022/06/12 19:04:40;;;;;;;2.72;1.30;;;;;;;23.71;100.00;100429.34;2616478;54;20279;-62
2022/06/12 19:07:13;;;;;;;1.63;1.30;;;;;;;23.73;100.00;100413.28;2616891;54;20666;-62
2022/06/12 19:09:43;;;;;;;1.70;1.60;;;;;;;23.68;100.00;100435.03;2616916;54;20134;-60
2022/06/12 19:12:14;;;;;;;2.10;1.40;;;;;;;23.69;100.00;100439.34;2616510;54;20146;-63
2022/06/12 19:15:05;;;;;;;3.50;2.03;;;;;;;23.73;100.00;100431.84;2616704;54;20688;-63
2022/06/12 19:17:35;;;;;;;1.83;1.67;;;;;;;23.79;100.00;100426.59;2616683;54;20152;-63
2022/06/12 19:20:07;;;;;;;2.28;2.08;;;;;;;23.77;100.00;100418.03;2617450;39;20564;-63
2022/06/12 19:22:40;;;;;;;4.35;1.90;;;;;;;23.94;100.00;100418.66;2616637;47;20160;-63
2022/06/12 19:25:11;;;;;;;2.50;2.30;;;;;;;;;;2617002;54;20153;-63
2022/06/12 19:27:41;;;;;;;5.38;3.85;;;;;;;24.06;100.00;100443.69;2618006;54;20145;-63
2022/06/12 19:30:14;;;;;;;3.42;2.30;;;;;;;24.00;100.00;100403.81;2615617;54;20176;-63
2022/06/12 19:32:44;;;;;;;5.85;3.00;;;;;;;24.02;100.00;100409.78;2616313;54;20193;-62
2022/06/12 19:35:14;;;;;;;2.67;1.98;;;;;;;23.97;100.00;100486.38;2616406;54;20219;-63
2022/06/12 19:37:47;;;;;;;3.13;1.50;;;;;;;23.96;100.00;100415.81;2616519;54;20157;-64
2022/06/12 19:40:21;;;;;;;4.80;3.58;;;;;;;23.95;100.00;100419.47;2616608;54;20707;-63
2022/06/12 19:42:51;;;;;;;2.22;1.73;;;;;;;24.05;100.00;100454.47;2616339;47;20183;-62
2022/06/12 19:45:23;;;;;;;13.05;3.28;;;;;;;24.07;100.00;100405.53;2616514;39;20599;-64
2022/06/12 19:47:54;;;;;;;7.38;2.33;;;;;;;23.99;100.00;100426.06;2617457;39;20570;-62
2022/06/12 19:50:25;;;;;;;2.78;2.22;;;;;;;23.98;100.00;100494.16;2616703;39;20623;-63
2022/06/12 19:52:58;;;;;;;2.83;2.63;;;;;;;23.93;100.00;100419.66;2615921;54;20164;-63
2022/06/12 19:55:28;;;;;;;2.40;1.88;;;;;;;23.95;100.00;100425.59;2616400;54;20249;-62
2022/06/12 19:57:59;;;;;;;2.85;2.03;;;;;;;23.99;100.00;100426.84;2616988;39;20557;-62
2022/06/12 20:00:29;;;;;;;1.42;1.33;;;;;;;23.94;100.00;100420.47;2616482;54;20158;-61
2022/06/12 20:02:59;;;;;;;2.30;1.40;;;;;;;23.96;100.00;100431.72;2616572;54;20162;-62
2022/06/12 20:08:16;;;;;;;5.88;1.92;;;;;;;23.82;100.00;100420.13;2615760;54;20154;-62
2022/06/12 20:10:47;;;;;;;4.10;1.95;;;;;;;23.80;100.00;100414.19;2616549;54;20253;-62
2022/06/12 20:13:34;;;;;;;2.72;2.22;;;;;;;23.79;100.00;100421.31;2616966;54;20704;-62
2022/06/12 20:16:06;;;;;;;1.70;1.60;;;;;;;23.68;100.00;100416.47;2618736;54;20194;-62
2022/06/12 20:18:36;;;;;;;5.22;1.83;;;;;;;23.62;100.00;100414.59;2618991;46;20153;-62
2022/06/12 20:21:10;;;;;;;2.72;1.95;;;;;;;23.53;100.00;100410.38;2618271;54;20142;-62
2022/06/12 20:23:43;;;;;;;2.15;1.77;;;;;;;23.41;100.00;100419.75;2617750;54;20148;-63
2022/06/12 20:26:13;;;;;;;4.10;2.80;;;;;;;23.44;100.00;100414.13;2618150;39;20545;-63
2022/06/12 20:28:43;;;;;;;2.13;1.92;;;;;;;23.43;100.00;100417.75;2617352;47;20670;-63
2022/06/12 20:31:13;;;;;;;2.95;1.55;;;;;;;23.39;100.00;100420.94;2617749;54;20673;-63
2022/06/12 20:33:44;;;;;;;1.67;1.58;;;;;;;23.44;100.00;100414.13;2617929;39;20571;-63
2022/06/12 20:36:15;;;;;;;1.88;1.52;;;;;;;23.38;100.00;100425.41;2617696;54;20145;-63
2022/06/12 20:38:48;;;;;;;2.85;2.15;;;;;;;23.41;100.00;100422.41;2617591;54;20142;-63
2022/06/12 20:41:19;;;;;;;3.38;2.78;;;;;;;23.47;100.00;100439.44;2617759;54;20142;-63
2022/06/12 20:43:49;;;;;;;2.35;1.73;;;;;;;23.52;100.00;100429.09;2617727;54;20176;-62
2022/06/12 20:46:20;;;;;;;2.63;2.42;;;;;;;23.46;100.00;100428.00;2617868;54;20134;-62
2022/06/12 20:48:50;;;;;;;2.28;1.25;;;;;;;23.42;100.00;100418.75;2617517;54;20145;-62
2022/06/12 20:51:22;;;;;;;3.17;2.88;;;;;;;23.35;100.00;100427.59;2617708;54;20690;-62
2022/06/12 20:53:55;;;;;;;1.85;1.20;;;;;;;23.43;100.00;100419.59;2617723;47;20148;-62
2022/06/12 20:56:25;;;;;;;0.77;0.77;;;;;;;23.47;100.00;100405.00;2619001;54;20169;-62
2022/06/12 20:59:01;;;;;;;3.15;2.25;;;;;;;23.46;100.00;100412.13;2617514;54;20145;-63
2022/06/12 21:01:32;;;;;;;1.55;1.45;;;;;;;23.42;100.00;100415.28;2617862;39;20562;-63
2022/06/12 21:04:02;;;;;;;1.67;1.58;;;;;;;23.43;100.00;100424.91;2617535;54;20145;-63
2022/06/12 21:06:33;;;;;;;12.95;2.38;;;;;;;23.32;100.00;100426.13;2617708;54;20168;-62
2022/06/12 21:09:06;;;;;;;2.05;1.77;;;;;;;23.30;100.00;100441.38;2617653;54;20145;-61
2022/06/12 21:11:36;;;;;;;3.97;2.20;;;;;;;23.37;100.00;100420.28;2617748;47;20148;-63
2022/06/12 21:14:06;;;;;;;3.00;1.73;;;;;;;23.27;100.00;100421.38;2617189;54;20150;-62
2022/06/12 21:16:37;;;;;;;1.98;1.83;;;;;;;23.22;100.00;100428.22;2617673;54;20141;-62
2022/06/12 21:19:07;;;;;;;3.42;3.13;;;;;;;23.08;100.00;100419.25;2617427;54;20172;-63
2022/06/12 21:21:38;;;;;;;1.25;1.15;;;;;;;23.02;100.00;100429.75;2617535;54;20146;-63
2022/06/12 21:24:11;;;;;;;1.20;0.98;;;;;;;23.02;100.00;100427.09;2617656;54;20714;-62
2022/06/12 21:26:42;;;;;;;1.70;1.60;;;;;;;22.93;100.00;100462.56;2617629;54;21036;-62
2022/06/12 21:29:12;;;;;;;4.22;2.72;;;;;;;22.89;100.00;100421.56;2617987;39;20560;-62
2022/06/12 21:31:42;;;;;;;1.45;1.35;;;;;;;22.88;100.00;100435.78;2617771;54;20173;-61
2022/06/12 21:34:13;;;;;;;1.67;1.58;;;;;;;22.81;100.00;100428.59;2617587;54;20177;-61
2022/06/12 21:36:43;;;;;;;3.38;1.80;;;;;;;22.80;100.00;100412.88;2617626;54;20141;-62
2022/06/12 21:39:16;;;;;;;2.15;1.98;;;;;;;22.69;100.00;100430.00;2617396;54;20134;-62
2022/06/12 21:41:46;;;;;;;3.15;2.75;;;;;;;22.62;100.00;100436.97;2617446;47;20160;-62
2022/06/12 21:44:16;;;;;;;2.20;2.00;;;;;;;22.68;100.00;100425.69;2617343;54;20673;-62
2022/06/12 21:46:47;;;;;;;1.98;1.83;;;;;;;22.60;100.00;100438.94;2618014;54;20197;-62
2022/06/12 21:49:17;;;;;;;2.88;2.67;;;;;;;22.63;100.00;100420.09;2617509;47;20142;-62
2022/06/12 21:54:35;;;;;;;3.80;1.63;;;;;;;22.54;100.00;100439.66;2617631;54;20704;-62
2022/06/12 21:57:08;;;;;;;1.73;1.48;;;;;;;22.64;100.00;100429.66;2617416;54;20153;-62
2022/06/12 21:59:40;;;;;;;2.08;1.95;;;;;;;22.63;100.00;100430.66;2617318;54;20141;-62
2022/06/12 22:02:14;;;;;;;2.17;1.98;;;;;;;22.59;100.00;100432.00;2617589;54;20144;-62
2022/06/12 22:04:46;;;;;;;1.38;1.10;;;;;;;22.54;100.00;100452.91;2617425;48;20141;-62
2022/06/12 22:07:17;;;;;;;3.00;2.70;;;;;;;22.50;100.00;100446.31;2617739;54;20142;-62
2022/06/12 22:09:50;;;;;;;2.85;2.58;;;;;;;22.51;100.00;100429.41;2617171;54;20145;-62
2022/06/12 22:12:20;;;;;;;2.10;1.65;;;;;;;22.47;100.00;100444.00;2617396;54;20748;-62
2022/06/12 22:14:50;;;;;;;2.33;2.08;;;;;;;22.36;100.00;100436.47;2617241;54;20150;-62
2022/06/12 22:17:21;;;;;;;1.98;1.88;;;;;;;22.35;100.00;100434.81;2617425;54;20145;-62
2022/06/12 22:19:51;;;;;;;1.23;1.15;;;;;;;22.29;100.00;100427.59;2617707;54;20152;-62
2022/06/12 22:22:23;;;;;;;2.17;1.77;;;;;;;22.26;100.00;100433.25;2618551;48;20146;-63
2022/06/12 22:24:56;;;;;;;2.25;2.13;;;;;;;22.23;100.00;100431.75;2618730;39;20671;-63
2022/06/12 22:27:26;;;;;;;2.72;2.53;;;;;;;22.17;100.00;100431.63;2618136;54;20149;-62
2022/06/12 22:29:58;;;;;;;3.13;2.67;;;;;;;22.13;100.00;100427.69;2617370;54;20146;-62
2022/06/12 22:32:28;;;;;;;2.45;1.90;;;;;;;22.10;100.00;100439.44;2617813;39;20536;-61
2022/06/12 22:34:58;;;;;;;2.00;1.83;;;;;;;21.95;100.00;100421.84;2617167;54;20165;-63
2022/06/12 22:37:28;;;;;;;1.00;1.00;;;;;;;22.24;100.00;100437.84;2617338;51;20146;-62
2022/06/12 22:40:02;;;;;;;3.08;1.83;;;;;;;22.19;100.00;100434.91;2616918;54;20141;-62
2022/06/12 22:42:33;;;;;;;2.00;1.83;;;;;;;22.25;100.00;100428.94;2617460;54;20145;-62
2022/06/12 22:45:03;;;;;;;3.35;3.05;;;;;;;22.28;100.00;100410.09;2617015;54;20142;-62
2022/06/12 22:47:34;;;;;;;2.90;2.60;;;;;;;22.35;100.00;100438.28;2617721;39;20542;-62
2022/06/12 22:50:04;;;;;;;10.23;3.28;;;;;;;22.27;100.00;100432.22;2617370;54;20220;-62
2022/06/12 22:52:34;;;;;;;4.18;2.35;;;;;;;22.33;100.00;100405.94;2617377;54;20492;-62
2022/06/12 22:55:08;;;;;;;6.30;3.08;;;;;;;22.31;100.00;100434.34;2617352;54;20145;-62
2022/06/12 22:57:38;;;;;;;4.32;2.95;;;;;;;22.37;100.00;100395.81;2617575;54;20646;-62
2022/06/12 23:00:10;;;;;;;3.47;2.38;;;;;;;22.42;100.00;100403.22;2617335;54;20688;-62
